Time;durP1;ratioP1;P1;durP2;ratioP2;P2;SDS_P1;SDS_P2;PMS_P1;PMS_P2;Temp;Humidity;BMP_temperature;BMP_pressure;BME280_temperature;BME280_humidity;BME280_pressure;Samples;Min_cycle;Max_cycle;Signal;HPM_P1;HPM_P2
2022/12/18 00:02:04;;;;;;;0.90;0.90;;;;;;;;;;1805422;78;26299;-44
2022/12/18 00:04:31;;;;;;;0.90;0.90;;;;;;;;;;1810527;78;26263;-41
2022/12/18 00:06:58;;;;;;;0.90;0.90;;;;;;;;;;1799541;78;28364;-37
2022/12/18 00:09:26;;;;;;;0.90;0.90;;;;;;;;;;1797920;78;26267;-42
2022/12/18 00:11:53;;;;;;;0.90;0.90;;;;;;;;;;1797833;78;26278;-49
2022/12/18 00:14:20;;;;;;;1.00;1.00;;;;;;;;;;1803527;78;26609;-39
2022/12/18 00:16:48;;;;;;;0.90;0.90;;;;;;;;;;1798750;78;26243;-41
2022/12/18 00:19:15;;;;;;;0.93;0.93;;;;;;;;;;1804226;78;26243;-39
2022/12/18 00:21:43;;;;;;;0.80;0.80;;;;;;;;;;1800056;78;26654;-43
2022/12/18 00:24:11;;;;;;;1.10;1.10;;;;;;;;;;1800080;78;26224;-40
2022/12/18 00:26:39;;;;;;;0.80;0.80;;;;;;;;;;1799117;78;26657;-38
2022/12/18 00:29:08;;;;;;;0.90;0.90;;;;;;;;;;1799643;78;26215;-44
2022/12/18 00:31:35;;;;;;;0.90;0.80;;;;;;;;;;1800782;78;26304;-40
2022/12/18 00:34:03;;;;;;;0.90;0.90;;;;;;;;;;1801634;78;26282;-43
2022/12/18 00:36:32;;;;;;;0.90;0.90;;;;;;;;;;1793766;78;26345;-40
2022/12/18 00:39:00;;;;;;;0.62;0.62;;;;;;;;;;1785561;79;26244;-42
2022/12/18 00:44:14;;;;;;;0.88;0.88;;;;;;;;;;1786899;78;26658;-42
2022/12/18 00:46:41;;;;;;;0.62;0.62;;;;;;;;;;1780912;79;26212;-41
2022/12/18 00:49:12;;;;;;;0.90;0.90;;;;;;;;;;1779546;78;26645;-42
2022/12/18 00:51:39;;;;;;;0.80;0.80;;;;;;;;;;1777085;78;26228;-41
2022/12/18 00:54:06;;;;;;;0.80;0.80;;;;;;;;;;1779757;78;26347;-41
2022/12/18 00:56:35;;;;;;;0.90;0.90;;;;;;;;;;1777083;78;26205;-44
2022/12/18 00:59:02;;;;;;;0.88;0.88;;;;;;;;;;1785234;78;27159;-46
2022/12/18 01:01:30;;;;;;;0.90;0.80;;;;;;;;;;1776356;78;26795;-40
2022/12/18 01:04:02;;;;;;;0.90;0.85;;;;;;;;;;1783456;78;26396;-43
2022/12/18 01:06:29;;;;;;;0.70;0.70;;;;;;;;;;1784809;78;26208;-39
2022/12/18 01:08:57;;;;;;;0.80;0.80;;;;;;;;;;1781441;79;26746;-41
2022/12/18 01:11:24;;;;;;;0.80;0.80;;;;;;;;;;1784177;78;26288;-38
2022/12/18 01:13:52;;;;;;;0.90;0.90;;;;;;;;;;1782660;79;26746;-41
2022/12/18 01:16:20;;;;;;;0.80;0.80;;;;;;;;;;1785508;78;26290;-42
2022/12/18 01:18:47;;;;;;;0.75;0.75;;;;;;;;;;1780420;78;26220;-43
2022/12/18 01:21:16;;;;;;;0.90;0.90;;;;;;;;;;1774184;78;26295;-39
2022/12/18 01:23:46;;;;;;;0.82;0.82;;;;;;;;;;1780784;78;26192;-45
2022/12/18 01:26:15;;;;;;;0.80;0.80;;;;;;;;;;1777498;78;26209;-43
2022/12/18 01:28:43;;;;;;;0.70;0.70;;;;;;;;;;1777540;79;26212;-38
2022/12/18 01:31:11;;;;;;;0.90;0.90;;;;;;;;;;1778009;79;26645;-38
2022/12/18 01:33:39;;;;;;;0.80;0.80;;;;;;;;;;1785569;79;26709;-38
2022/12/18 01:36:06;;;;;;;0.70;0.70;;;;;;;;;;1776402;79;26272;-47
2022/12/18 01:38:33;;;;;;;0.70;0.70;;;;;;;;;;1785361;79;26311;-42
2022/12/18 01:41:01;;;;;;;0.80;0.80;;;;;;;;;;1779802;78;26258;-38
2022/12/18 01:43:45;;;;;;;0.70;0.70;;;;;;;;;;1782836;79;26307;-41
2022/12/18 01:46:13;;;;;;;0.70;0.70;;;;;;;;;;1779394;78;26596;-38
2022/12/18 01:48:40;;;;;;;1.77;0.90;;;;;;;;;;1786924;78;26222;-40
2022/12/18 01:51:09;;;;;;;0.78;0.78;;;;;;;;;;1786956;79;26696;-40
2022/12/18 01:53:36;;;;;;;0.88;0.88;;;;;;;;;;1773050;78;26216;-40
2022/12/18 01:56:04;;;;;;;0.70;0.70;;;;;;;;;;1782455;79;26638;-42
2022/12/18 01:58:33;;;;;;;0.70;0.70;;;;;;;;;;1776720;78;26209;-42
2022/12/18 02:01:00;;;;;;;0.70;0.70;;;;;;;;;;1786123;78;26247;-41
2022/12/18 02:03:27;;;;;;;0.70;0.70;;;;;;;;;;1784582;78;26272;-37
2022/12/18 02:06:08;;;;;;;0.70;0.70;;;;;;;;;;1785692;78;26015;-39
2022/12/18 02:08:40;;;;;;;0.70;0.70;;;;;;;;;;1782602;79;26273;-40
2022/12/18 02:11:14;;;;;;;0.75;0.75;;;;;;;;;;1783825;78;26732;-44
2022/12/18 02:13:43;;;;;;;0.80;0.80;;;;;;;;;;1783883;78;26374;-38
2022/12/18 02:16:27;;;;;;;0.68;0.68;;;;;;;;;;1778770;79;26220;-38
2022/12/18 02:18:56;;;;;;;0.80;0.80;;;;;;;;;;1791512;78;26224;-44
2022/12/18 02:21:36;;;;;;;0.78;0.78;;;;;;;;;;1778924;79;26727;-37
2022/12/18 02:24:05;;;;;;;0.80;0.80;;;;;;;;;;1782821;78;26208;-43
2022/12/18 02:26:37;;;;;;;0.60;0.60;;;;;;;;;;1774059;79;26219;-41
2022/12/18 02:29:09;;;;;;;0.85;0.78;;;;;;;;;;1777091;79;26232;-38
2022/12/18 02:31:39;;;;;;;0.75;0.75;;;;;;;;;;1792828;77;26315;-41
2022/12/18 02:34:08;;;;;;;0.70;0.70;;;;;;;;;;1772732;78;26226;-50
2022/12/18 02:36:35;;;;;;;0.70;0.70;;;;;;;;;;1781543;78;27647;-39
2022/12/18 02:39:04;;;;;;;0.70;0.70;;;;;;;;;;1777291;79;26276;-43
2022/12/18 02:41:32;;;;;;;0.90;0.90;;;;;;;;;;1778137;79;26221;-40
2022/12/18 02:44:01;;;;;;;0.72;0.72;;;;;;;;;;1773150;79;26283;-41
2022/12/18 02:46:35;;;;;;;0.78;0.78;;;;;;;;;;1781003;79;26236;-39
2022/12/18 02:49:21;;;;;;;0.80;0.80;;;;;;;;;;1785325;79;26227;-37
2022/12/18 02:51:52;;;;;;;0.80;0.80;;;;;;;;;;1778660;79;26232;-38
2022/12/18 02:54:30;;;;;;;0.80;0.80;;;;;;;;;;1794794;79;26303;-38
2022/12/18 02:56:59;;;;;;;0.80;0.80;;;;;;;;;;1775010;79;26256;-38
2022/12/18 02:59:28;;;;;;;0.80;0.80;;;;;;;;;;1782068;79;26249;-40
2022/12/18 03:01:59;;;;;;;2.75;1.37;;;;;;;;;;1770951;79;26159;-40
2022/12/18 03:04:28;;;;;;;0.88;0.88;;;;;;;;;;1797979;79;26268;-41
2022/12/18 03:06:57;;;;;;;1.37;0.70;;;;;;;;;;1778640;79;26342;-42
2022/12/18 03:09:34;;;;;;;0.60;0.60;;;;;;;;;;1776641;79;26217;-37
2022/12/18 03:14:50;;;;;;;0.70;0.70;;;;;;;;;;1796562;79;26195;-41
2022/12/18 03:17:19;;;;;;;0.80;0.80;;;;;;;;;;1788808;79;26258;-41
2022/12/18 03:19:46;;;;;;;1.67;0.90;;;;;;;;;;1788781;79;26214;-40
2022/12/18 03:22:14;;;;;;;0.80;0.80;;;;;;;;;;1782443;79;26980;-45
2022/12/18 03:24:41;;;;;;;0.80;0.80;;;;;;;;;;1782836;79;26345;-44
2022/12/18 03:27:10;;;;;;;2.20;0.90;;;;;;;;;;1781082;79;26335;-40
2022/12/18 03:29:41;;;;;;;0.70;0.70;;;;;;;;;;1775560;79;26321;-37
2022/12/18 03:32:10;;;;;;;0.68;0.68;;;;;;;;;;1776685;79;26240;-37
2022/12/18 03:34:39;;;;;;;0.65;0.65;;;;;;;;;;1779719;79;26291;-41
2022/12/18 03:37:06;;;;;;;0.70;0.70;;;;;;;;;;1776643;79;26280;-46
2022/12/18 03:39:34;;;;;;;0.85;0.85;;;;;;;;;;1807709;78;26349;-41
2022/12/18 03:42:03;;;;;;;0.70;0.70;;;;;;;;;;1817479;78;26221;-45
2022/12/18 03:44:32;;;;;;;0.60;0.60;;;;;;;;;;1815672;78;26162;-43
2022/12/18 03:47:01;;;;;;;0.82;0.82;;;;;;;;;;1801745;78;26230;-40
2022/12/18 03:49:32;;;;;;;0.80;0.80;;;;;;;;;;1793317;78;26353;-37
2022/12/18 03:52:01;;;;;;;0.80;0.80;;;;;;;;;;1793032;78;26354;-39
2022/12/18 03:54:29;;;;;;;0.70;0.70;;;;;;;;;;1804192;78;26216;-39
2022/12/18 03:56:58;;;;;;;0.80;0.80;;;;;;;;;;1812700;78;26204;-37
2022/12/18 03:59:26;;;;;;;0.70;0.70;;;;;;;;;;1816725;78;26219;-39
2022/12/18 04:01:54;;;;;;;1.12;0.65;;;;;;;;;;1807105;78;26676;-37
2022/12/18 04:04:22;;;;;;;0.72;0.72;;;;;;;;;;1825658;78;26263;-40
2022/12/18 04:06:50;;;;;;;0.70;0.70;;;;;;;;;;1826320;78;26741;-40
2022/12/18 04:09:17;;;;;;;0.80;0.80;;;;;;;;;;1818897;78;26209;-38
2022/12/18 04:11:44;;;;;;;0.70;0.70;;;;;;;;;;1830469;78;26425;-38
2022/12/18 04:14:11;;;;;;;0.70;0.70;;;;;;;;;;1818307;78;27015;-38
2022/12/18 04:16:39;;;;;;;0.70;0.70;;;;;;;;;;1809273;78;26704;-38
2022/12/18 04:19:06;;;;;;;0.70;0.70;;;;;;;;;;1809599;78;26301;-37
2022/12/18 04:21:41;;;;;;;0.70;0.70;;;;;;;;;;1896420;74;27808;-40
2022/12/18 04:24:08;;;;;;;0.90;0.80;;;;;;;;;;1868637;76;26352;-38
2022/12/18 04:26:35;;;;;;;0.80;0.80;;;;;;;;;;1883933;76;26246;-37
2022/12/18 04:29:03;;;;;;;1.55;0.70;;;;;;;;;;1880021;76;26245;-42
2022/12/18 04:31:30;;;;;;;0.75;0.68;;;;;;;;;;1862717;75;27372;-38
2022/12/18 04:33:57;;;;;;;0.50;0.50;;;;;;;;;;1873000;76;26891;-38
2022/12/18 04:36:27;;;;;;;0.60;0.60;;;;;;;;;;1875816;76;27488;-38
2022/12/18 04:38:54;;;;;;;0.60;0.60;;;;;;;;;;1864695;76;26811;-40
2022/12/18 04:41:22;;;;;;;0.70;0.70;;;;;;;;;;1874470;75;26265;-38
2022/12/18 04:43:49;;;;;;;0.70;0.70;;;;;;;;;;1868566;76;26347;-40
2022/12/18 04:46:16;;;;;;;0.60;0.60;;;;;;;;;;1879841;76;26269;-38
2022/12/18 04:48:45;;;;;;;0.70;0.70;;;;;;;;;;1872760;76;26283;-41
2022/12/18 04:51:12;;;;;;;0.62;0.62;;;;;;;;;;1880139;76;26269;-39
2022/12/18 04:53:39;;;;;;;0.57;0.57;;;;;;;;;;1864997;75;26248;-38
2022/12/18 04:56:08;;;;;;;0.68;0.68;;;;;;;;;;1878908;76;26311;-41
2022/12/18 04:58:36;;;;;;;0.70;0.70;;;;;;;;;;1877981;76;26249;-42
2022/12/18 05:01:04;;;;;;;0.60;0.60;;;;;;;;;;1870703;76;26787;-37
2022/12/18 05:03:31;;;;;;;0.70;0.70;;;;;;;;;;1871779;76;26261;-40
2022/12/18 05:05:58;;;;;;;0.60;0.60;;;;;;;;;;1868415;75;26666;-41
2022/12/18 05:08:25;;;;;;;0.60;0.60;;;;;;;;;;1881685;76;26742;-39
2022/12/18 05:11:03;;;;;;;0.70;0.70;;;;;;;;;;1880579;76;26706;-37
2022/12/18 05:13:30;;;;;;;0.60;0.60;;;;;;;;;;1878804;76;26194;-38
2022/12/18 05:15:57;;;;;;;1.05;0.68;;;;;;;;;;1873996;75;26724;-38
2022/12/18 05:18:25;;;;;;;0.65;0.65;;;;;;;;;;1873400;75;26296;-38
2022/12/18 05:20:53;;;;;;;0.70;0.70;;;;;;;;;;1865258;76;26346;-38
2022/12/18 05:23:22;;;;;;;0.60;0.60;;;;;;;;;;1887141;76;26261;-40
2022/12/18 05:25:51;;;;;;;0.60;0.60;;;;;;;;;;1889747;76;26248;-43
2022/12/18 05:28:18;;;;;;;0.50;0.50;;;;;;;;;;1869935;75;26257;-37
2022/12/18 05:30:47;;;;;;;0.57;0.57;;;;;;;;;;1884828;76;26248;-42
2022/12/18 05:33:14;;;;;;;0.60;0.60;;;;;;;;;;1877779;75;26307;-39
2022/12/18 05:35:41;;;;;;;0.60;0.60;;;;;;;;;;1888808;76;26185;-43
2022/12/18 05:38:08;;;;;;;0.60;0.60;;;;;;;;;;1882316;76;26324;-42
2022/12/18 05:40:36;;;;;;;0.70;0.70;;;;;;;;;;1884606;76;26257;-39
2022/12/18 05:43:06;;;;;;;0.78;0.78;;;;;;;;;;1868164;76;26260;-43
2022/12/18 05:45:35;;;;;;;0.70;0.70;;;;;;;;;;1876687;76;26312;-48
2022/12/18 05:48:02;;;;;;;0.70;0.70;;;;;;;;;;1880358;76;26370;-38
2022/12/18 05:50:30;;;;;;;0.60;0.60;;;;;;;;;;1881329;76;26325;-41
2022/12/18 05:52:57;;;;;;;0.60;0.60;;;;;;;;;;1874485;76;26233;-39
2022/12/18 05:55:25;;;;;;;0.70;0.70;;;;;;;;;;1873604;76;26241;-38
2022/12/18 05:57:53;;;;;;;0.62;0.62;;;;;;;;;;1889296;76;26246;-38
2022/12/18 06:00:20;;;;;;;0.60;0.60;;;;;;;;;;1878752;76;26312;-40
2022/12/18 06:02:48;;;;;;;0.62;0.50;;;;;;;;;;1860891;76;26255;-40
2022/12/18 06:05:15;;;;;;;0.70;0.70;;;;;;;;;;1883195;76;26748;-45
2022/12/18 06:07:42;;;;;;;0.60;0.60;;;;;;;;;;1875675;76;26322;-41
2022/12/18 06:10:09;;;;;;;0.60;0.60;;;;;;;;;;1887279;76;26318;-40
2022/12/18 06:12:37;;;;;;;0.60;0.60;;;;;;;;;;1887583;76;26236;-37
2022/12/18 06:15:04;;;;;;;0.50;0.50;;;;;;;;;;1878221;76;26262;-41
2022/12/18 06:17:32;;;;;;;0.65;0.65;;;;;;;;;;1887691;76;26848;-38
2022/12/18 06:20:00;;;;;;;0.60;0.60;;;;;;;;;;1885359;76;26237;-49
2022/12/18 06:22:28;;;;;;;0.50;0.50;;;;;;;;;;1871418;76;26347;-37
2022/12/18 06:24:55;;;;;;;0.60;0.60;;;;;;;;;;1873464;75;26268;-41
2022/12/18 06:27:22;;;;;;;0.60;0.60;;;;;;;;;;1862248;76;26190;-38
2022/12/18 06:29:49;;;;;;;0.62;0.62;;;;;;;;;;1877659;76;26242;-38
2022/12/18 06:32:17;;;;;;;0.60;0.60;;;;;;;;;;1873709;76;26201;-40
2022/12/18 06:34:44;;;;;;;6.92;0.80;;;;;;;;;;1880133;76;26319;-48
2022/12/18 06:37:11;;;;;;;0.68;0.68;;;;;;;;;;1863918;76;26722;-50
2022/12/18 06:39:38;;;;;;;0.60;0.60;;;;;;;;;;1877760;76;25702;-39
2022/12/18 06:42:06;;;;;;;0.68;0.68;;;;;;;;;;1878271;76;26795;-42
2022/12/18 06:44:33;;;;;;;0.50;0.50;;;;;;;;;;1879647;76;27414;-39
2022/12/18 06:47:00;;;;;;;0.50;0.50;;;;;;;;;;1860726;76;26765;-39
2022/12/18 06:49:27;;;;;;;0.60;0.60;;;;;;;;;;1871873;76;26763;-42
2022/12/18 06:51:55;;;;;;;0.50;0.50;;;;;;;;;;1875548;76;26355;-42
2022/12/18 06:54:22;;;;;;;0.65;0.65;;;;;;;;;;1876005;76;26640;-43
2022/12/18 06:56:49;;;;;;;0.65;0.65;;;;;;;;;;1859077;76;26394;-41
2022/12/18 06:59:17;;;;;;;0.60;0.60;;;;;;;;;;1875841;75;26348;-42
2022/12/18 07:01:44;;;;;;;0.60;0.60;;;;;;;;;;1868089;76;26803;-39
2022/12/18 07:04:11;;;;;;;1.45;0.70;;;;;;;;;;1875782;76;26307;-41
2022/12/18 07:06:38;;;;;;;0.75;0.75;;;;;;;;;;1859898;76;26292;-41
2022/12/18 07:09:06;;;;;;;0.78;0.78;;;;;;;;;;1868901;76;26261;-42
2022/12/18 07:11:33;;;;;;;0.75;0.75;;;;;;;;;;1875164;76;26344;-40
2022/12/18 07:14:00;;;;;;;2.87;0.80;;;;;;;;;;1875030;76;26913;-39
2022/12/18 07:16:30;;;;;;;0.80;0.80;;;;;;;;;;1861997;76;26751;-47
2022/12/18 07:18:58;;;;;;;0.75;0.75;;;;;;;;;;1867454;76;26230;-38
2022/12/18 07:21:25;;;;;;;0.93;0.90;;;;;;;;;;1876636;76;26297;-42
2022/12/18 07:23:53;;;;;;;0.62;0.62;;;;;;;;;;1860283;76;26338;-39
2022/12/18 07:26:21;;;;;;;0.75;0.75;;;;;;;;;;1851986;76;26311;-40
2022/12/18 07:28:49;;;;;;;1.42;0.70;;;;;;;;;;1874617;76;26253;-41
2022/12/18 07:31:18;;;;;;;0.70;0.70;;;;;;;;;;1861493;76;26784;-38
2022/12/18 07:33:46;;;;;;;0.90;0.90;;;;;;;;;;1872630;75;26688;-43
2022/12/18 07:36:13;;;;;;;0.78;0.78;;;;;;;;;;1872112;76;26299;-44
2022/12/18 07:38:41;;;;;;;1.42;0.80;;;;;;;;;;1878294;76;26333;-44
2022/12/18 07:41:09;;;;;;;0.90;0.90;;;;;;;;;;1873304;76;26297;-40
2022/12/18 07:43:37;;;;;;;0.80;0.80;;;;;;;;;;1867743;76;26226;-40
2022/12/18 07:46:05;;;;;;;0.62;0.62;;;;;;;;;;1868215;76;26292;-38
2022/12/18 07:48:32;;;;;;;0.70;0.70;;;;;;;;;;1875120;76;26265;-40
2022/12/18 07:51:01;;;;;;;0.90;0.90;;;;;;;;;;1866572;76;25347;-42
2022/12/18 07:53:28;;;;;;;1.35;0.90;;;;;;;;;;1874429;76;26262;-40
2022/12/18 07:55:59;;;;;;;0.95;0.80;;;;;;;;;;1870911;76;26258;-38
2022/12/18 07:58:27;;;;;;;1.65;0.80;;;;;;;;;;1873939;76;26245;-40
2022/12/18 08:00:54;;;;;;;0.80;0.80;;;;;;;;;;1870743;76;26280;-39
2022/12/18 08:03:21;;;;;;;0.60;0.60;;;;;;;;;;1874288;76;26706;-38
2022/12/18 08:05:48;;;;;;;0.80;0.80;;;;;;;;;;1876545;76;26840;-43
2022/12/18 08:08:16;;;;;;;0.80;0.80;;;;;;;;;;1875542;76;26768;-38
2022/12/18 08:10:43;;;;;;;0.70;0.70;;;;;;;;;;1874362;76;26694;-41
2022/12/18 08:13:10;;;;;;;1.25;0.78;;;;;;;;;;1878765;76;26750;-37
2022/12/18 08:15:37;;;;;;;2.30;0.80;;;;;;;;;;1877041;75;26898;-42
2022/12/18 08:18:04;;;;;;;0.72;0.72;;;;;;;;;;1863153;76;26356;-37
2022/12/18 08:20:32;;;;;;;2.47;0.60;;;;;;;;;;1852750;76;26234;-39
2022/12/18 08:22:59;;;;;;;0.80;0.80;;;;;;;;;;1858147;75;26323;-40
2022/12/18 08:25:26;;;;;;;0.78;0.78;;;;;;;;;;1849460;76;26284;-39
2022/12/18 08:27:54;;;;;;;1.00;0.95;;;;;;;;;;1850558;76;26299;-42
2022/12/18 08:30:22;;;;;;;0.65;0.65;;;;;;;;;;1849183;76;26856;-39
2022/12/18 08:32:51;;;;;;;0.88;0.88;;;;;;;;;;1845341;76;26327;-43
2022/12/18 08:35:18;;;;;;;1.25;0.90;;;;;;;;;;1848947;76;26280;-42
2022/12/18 08:37:45;;;;;;;1.20;1.10;;;;;;;;;;1845754;76;26300;-43
2022/12/18 08:40:12;;;;;;;1.75;1.30;;;;;;;;;;1851304;76;26276;-44
2022/12/18 08:45:26;;;;;;;1.45;1.35;;;;;;;;;;1848446;76;26771;-38
2022/12/18 08:47:53;;;;;;;3.00;1.52;;;;;;;;;;1852039;76;26310;-39
2022/12/18 08:50:20;;;;;;;2.85;1.60;;;;;;;;;;1849092;76;26284;-40
2022/12/18 08:52:47;;;;;;;4.33;1.80;;;;;;;;;;1847485;76;26400;-43
2022/12/18 08:55:15;;;;;;;3.02;1.70;;;;;;;;;;1849395;76;26752;-43
2022/12/18 08:57:42;;;;;;;3.37;1.72;;;;;;;;;;1819765;77;26293;-45
2022/12/18 09:00:10;;;;;;;3.95;1.70;;;;;;;;;;1814410;77;26385;-38
2022/12/18 09:02:37;;;;;;;4.22;1.70;;;;;;;;;;1820810;77;26357;-46
2022/12/18 09:05:05;;;;;;;3.62;1.70;;;;;;;;;;1816773;77;26496;-40
2022/12/18 09:07:32;;;;;;;2.83;1.67;;;;;;;;;;1812937;77;26008;-44
2022/12/18 09:09:59;;;;;;;4.25;1.70;;;;;;;;;;1804499;78;26701;-39
2022/12/18 09:12:27;;;;;;;3.27;1.57;;;;;;;;;;1808473;77;26793;-37
2022/12/18 09:14:54;;;;;;;1.82;1.50;;;;;;;;;;1781208;79;26295;-41
2022/12/18 09:17:21;;;;;;;3.95;1.32;;;;;;;;;;1816292;78;26353;-42
2022/12/18 09:19:49;;;;;;;1.57;1.40;;;;;;;;;;1819654;77;26307;-47
2022/12/18 09:22:19;;;;;;;2.52;1.30;;;;;;;;;;1781236;79;26314;-44
2022/12/18 09:24:47;;;;;;;1.52;1.42;;;;;;;;;;1779391;78;26412;-39
2022/12/18 09:27:14;;;;;;;1.82;1.45;;;;;;;;;;1811191;78;27382;-44
2022/12/18 09:29:42;;;;;;;1.80;1.40;;;;;;;;;;1779674;78;26393;-43
2022/12/18 09:32:09;;;;;;;3.70;1.60;;;;;;;;;;1796634;79;26263;-43
2022/12/18 09:34:37;;;;;;;1.40;1.27;;;;;;;;;;1794269;79;27111;-43
2022/12/18 09:37:04;;;;;;;1.60;1.20;;;;;;;;;;1779313;80;26397;-42
2022/12/18 09:39:36;;;;;;;3.00;1.40;;;;;;;;;;1779974;79;26291;-36
2022/12/18 09:42:04;;;;;;;1.90;1.22;;;;;;;;;;1791116;78;26911;-43
2022/12/18 09:44:39;;;;;;;4.67;1.15;;;;;;;;;;1796094;79;26292;-41
2022/12/18 09:47:07;;;;;;;2.77;1.05;;;;;;;;;;1796284;79;26291;-37
2022/12/18 09:49:36;;;;;;;1.82;1.20;;;;;;;;;;1793445;79;26337;-44
2022/12/18 09:52:11;;;;;;;1.10;1.10;;;;;;;;;;1794017;78;26334;-47
2022/12/18 09:54:43;;;;;;;1.65;1.20;;;;;;;;;;1794453;79;27800;-40
2022/12/18 09:57:15;;;;;;;1.30;1.00;;;;;;;;;;1794854;79;27268;-39
2022/12/18 09:59:45;;;;;;;2.52;1.10;;;;;;;;;;1789261;79;26580;-46
2022/12/18 10:02:17;;;;;;;0.95;0.95;;;;;;;;;;1809717;77;26370;-50
2022/12/18 10:04:46;;;;;;;1.30;1.20;;;;;;;;;;1796243;78;26393;-40
2022/12/18 10:07:15;;;;;;;3.90;1.20;;;;;;;;;;1789493;79;26288;-41
2022/12/18 10:09:44;;;;;;;1.10;1.10;;;;;;;;;;1794484;79;26287;-46
2022/12/18 10:12:21;;;;;;;1.75;1.10;;;;;;;;;;1794801;79;26323;-36
2022/12/18 10:14:57;;;;;;;2.42;1.35;;;;;;;;;;1789458;78;26285;-43
2022/12/18 10:17:25;;;;;;;3.42;1.20;;;;;;;;;;1791286;78;26787;-46
2022/12/18 10:19:57;;;;;;;1.50;1.02;;;;;;;;;;1794743;79;26861;-42
2022/12/18 10:22:41;;;;;;;1.20;1.10;;;;;;;;;;1789249;79;26302;-39
2022/12/18 10:25:18;;;;;;;1.10;1.10;;;;;;;;;;1774825;80;26378;-45
2022/12/18 10:27:46;;;;;;;1.10;1.10;;;;;;;;;;1791923;78;26283;-39
2022/12/18 10:30:14;;;;;;;1.45;1.12;;;;;;;;;;1867553;76;26217;-41
2022/12/18 10:32:42;;;;;;;1.27;1.27;;;;;;;;;;1865383;76;26268;-40
2022/12/18 10:35:10;;;;;;;2.15;1.30;;;;;;;;;;1864209;76;26202;-46
2022/12/18 10:37:39;;;;;;;1.15;1.10;;;;;;;;;;1862918;76;26535;-40
2022/12/18 10:40:11;;;;;;;1.55;0.95;;;;;;;;;;1856868;76;26256;-41
2022/12/18 10:42:39;;;;;;;2.92;1.10;;;;;;;;;;1863278;75;27197;-40
2022/12/18 10:45:08;;;;;;;1.00;0.95;;;;;;;;;;1865110;76;27216;-38
2022/12/18 10:47:35;;;;;;;1.17;1.17;;;;;;;;;;1869713;76;26240;-40
2022/12/18 10:50:03;;;;;;;1.10;1.10;;;;;;;;;;1860011;75;26952;-40
2022/12/18 10:52:31;;;;;;;1.22;1.12;;;;;;;;;;1866358;75;26276;-41
2022/12/18 10:55:01;;;;;;;1.90;1.22;;;;;;;;;;1864264;76;26269;-41
2022/12/18 10:57:33;;;;;;;1.30;1.17;;;;;;;;;;1864178;76;27376;-42
2022/12/18 11:00:02;;;;;;;1.12;1.10;;;;;;;;;;1862639;76;26326;-40
2022/12/18 11:02:37;;;;;;;1.07;1.07;;;;;;;;;;1868397;75;26393;-37
2022/12/18 11:05:05;;;;;;;3.20;1.00;;;;;;;;;;1866180;76;26370;-38
2022/12/18 11:07:46;;;;;;;1.92;1.30;;;;;;;;;;1860246;76;26237;-39
2022/12/18 11:10:15;;;;;;;1.17;1.17;;;;;;;;;;1864685;76;27257;-38
2022/12/18 11:12:42;;;;;;;1.30;1.20;;;;;;;;;;1857695;75;26896;-45
2022/12/18 11:15:17;;;;;;;3.92;1.10;;;;;;;;;;1872785;76;26312;-39
2022/12/18 11:17:46;;;;;;;1.17;1.15;;;;;;;;;;1868643;76;26312;-42
2022/12/18 11:20:21;;;;;;;2.47;1.35;;;;;;;;;;1873933;75;26785;-37
2022/12/18 11:22:56;;;;;;;1.32;1.22;;;;;;;;;;1871526;75;26280;-37
2022/12/18 11:25:23;;;;;;;1.20;1.20;;;;;;;;;;1869399;75;26252;-37
2022/12/18 11:27:58;;;;;;;1.17;1.17;;;;;;;;;;1874921;76;26627;-40
2022/12/18 11:30:27;;;;;;;1.95;1.32;;;;;;;;;;1877285;76;26307;-38
2022/12/18 11:32:58;;;;;;;1.10;1.10;;;;;;;;;;1860891;76;26258;-37
2022/12/18 11:35:30;;;;;;;1.98;1.17;;;;;;;;;;1863785;75;26252;-43
2022/12/18 11:37:59;;;;;;;1.95;1.10;;;;;;;;;;1869407;75;26311;-41
2022/12/18 11:40:31;;;;;;;1.95;1.10;;;;;;;;;;1876467;76;26334;-40
2022/12/18 11:42:59;;;;;;;1.20;1.10;;;;;;;;;;1861339;76;28785;-40
2022/12/18 11:45:31;;;;;;;0.90;0.90;;;;;;;;;;1867132;76;26804;-39
2022/12/18 11:48:03;;;;;;;1.00;1.00;;;;;;;;;;1864373;75;26221;-41
2022/12/18 11:50:32;;;;;;;1.00;1.00;;;;;;;;;;1879725;76;26311;-39
2022/12/18 11:52:59;;;;;;;1.95;1.20;;;;;;;;;;1866055;76;26726;-38
2022/12/18 11:55:45;;;;;;;2.77;1.12;;;;;;;;;;1861924;76;26244;-38
2022/12/18 11:58:19;;;;;;;1.17;1.17;;;;;;;;;;1876396;75;26253;-42
2022/12/18 12:00:51;;;;;;;1.15;1.10;;;;;;;;;;1864637;76;26306;-38
2022/12/18 12:03:21;;;;;;;1.15;1.05;;;;;;;;;;1863347;75;26347;-38
2022/12/18 12:06:06;;;;;;;2.20;1.20;;;;;;;;;;1876011;75;27364;-40
2022/12/18 12:08:52;;;;;;;1.60;1.10;;;;;;;;;;1875107;76;26408;-40
2022/12/18 12:11:36;;;;;;;2.05;1.00;;;;;;;;;;1855587;75;26264;-43
2022/12/18 12:14:16;;;;;;;1.00;0.90;;;;;;;;;;1760019;79;26437;-44
2022/12/18 12:16:48;;;;;;;1.27;0.98;;;;;;;;;;1834047;75;26285;-41
2022/12/18 12:19:22;;;;;;;1.30;1.20;;;;;;;;;;1856896;76;26334;-40
2022/12/18 12:21:54;;;;;;;1.07;1.07;;;;;;;;;;1874863;75;26284;-41
2022/12/18 12:24:29;;;;;;;1.50;1.10;;;;;;;;;;1875929;76;26301;-38
2022/12/18 12:27:04;;;;;;;1.37;1.00;;;;;;;;;;1866739;76;26346;-38
2022/12/18 12:29:38;;;;;;;1.20;1.05;;;;;;;;;;1866392;76;26249;-46
2022/12/18 12:32:22;;;;;;;0.90;0.90;;;;;;;;;;1866911;76;26918;-39
2022/12/18 12:34:51;;;;;;;1.95;0.98;;;;;;;;;;1865787;75;26359;-41
2022/12/18 12:37:29;;;;;;;1.00;1.00;;;;;;;;;;1870906;75;26303;-40
2022/12/18 12:39:57;;;;;;;1.00;1.00;;;;;;;;;;1876805;76;26269;-40
2022/12/18 12:45:39;;;;;;;0.90;0.90;;;;;;;;;;1863508;75;26385;-42
2022/12/18 12:48:08;;;;;;;1.20;1.20;;;;;;;;;;1872687;76;26312;-41
2022/12/18 12:50:36;;;;;;;1.30;1.20;;;;;;;;;;1875221;76;26319;-41
2022/12/18 12:53:05;;;;;;;1.17;1.17;;;;;;;;;;1875541;76;26249;-43
2022/12/18 12:55:34;;;;;;;0.98;0.98;;;;;;;;;;1871988;75;26728;-44
2022/12/18 12:58:03;;;;;;;2.58;1.00;;;;;;;;;;1873985;75;26788;-38
2022/12/18 13:00:31;;;;;;;1.00;1.00;;;;;;;;;;1869569;76;26276;-39
2022/12/18 13:03:06;;;;;;;1.00;1.00;;;;;;;;;;1872225;76;26413;-43
2022/12/18 13:05:35;;;;;;;1.42;1.10;;;;;;;;;;1819609;76;26718;-38
2022/12/18 13:08:09;;;;;;;2.05;1.10;;;;;;;;;;1870603;75;26265;-38
2022/12/18 13:10:42;;;;;;;1.25;1.02;;;;;;;;;;1874464;76;26246;-39
2022/12/18 13:13:12;;;;;;;1.05;0.93;;;;;;;;;;1873484;76;26229;-38
2022/12/18 13:15:41;;;;;;;1.10;1.10;;;;;;;;;;1864643;75;26295;-41
2022/12/18 13:18:12;;;;;;;0.90;0.90;;;;;;;;;;1876035;76;26253;-45
2022/12/18 13:20:41;;;;;;;0.90;0.90;;;;;;;;;;1865581;76;27430;-46
2022/12/18 13:23:29;;;;;;;0.85;0.85;;;;;;;;;;1875929;76;26311;-47
2022/12/18 13:25:55;;;;;;;0.85;0.85;;;;;;;;;;1880097;76;26398;-37
2022/12/18 13:28:27;;;;;;;0.90;0.90;;;;;;;;;;1877998;76;26637;-43
2022/12/18 13:30:57;;;;;;;1.07;1.00;;;;;;;;;;1876549;76;26214;-38
2022/12/18 13:33:29;;;;;;;1.15;0.95;;;;;;;;;;1880737;76;26719;-37
2022/12/18 13:36:04;;;;;;;0.95;0.95;;;;;;;;;;1884887;74;26330;-38
2022/12/18 13:38:33;;;;;;;1.00;1.00;;;;;;;;;;1865298;76;26249;-43
2022/12/18 13:41:02;;;;;;;0.90;0.90;;;;;;;;;;1887330;76;26698;-43
2022/12/18 13:43:30;;;;;;;0.90;0.90;;;;;;;;;;1879955;76;26248;-40
2022/12/18 13:46:08;;;;;;;0.95;0.80;;;;;;;;;;1885932;76;26535;-38
2022/12/18 13:48:37;;;;;;;1.00;1.00;;;;;;;;;;1859329;76;26324;-40
2022/12/18 13:51:06;;;;;;;0.98;0.98;;;;;;;;;;1865944;76;26245;-35
2022/12/18 13:53:46;;;;;;;1.10;1.10;;;;;;;;;;1871468;75;26354;-44
2022/12/18 13:56:20;;;;;;;0.90;0.90;;;;;;;;;;1871354;76;26222;-36
2022/12/18 13:58:49;;;;;;;0.90;0.90;;;;;;;;;;1885774;76;26249;-36
2022/12/18 14:01:18;;;;;;;1.00;1.00;;;;;;;;;;1874812;76;26286;-38
2022/12/18 14:03:45;;;;;;;1.55;0.90;;;;;;;;;;1880469;76;26257;-39
2022/12/18 14:06:13;;;;;;;0.90;0.90;;;;;;;;;;1865023;76;26317;-39
2022/12/18 14:08:41;;;;;;;0.80;0.80;;;;;;;;;;1887394;76;26789;-36
2022/12/18 14:11:10;;;;;;;0.93;0.93;;;;;;;;;;1874976;76;26244;-36
2022/12/18 14:13:39;;;;;;;1.00;1.00;;;;;;;;;;1864766;76;26307;-40
2022/12/18 14:16:07;;;;;;;0.90;0.90;;;;;;;;;;1886705;76;26314;-36
2022/12/18 14:18:37;;;;;;;1.12;1.00;;;;;;;;;;1876643;75;26291;-39
2022/12/18 14:21:05;;;;;;;0.80;0.80;;;;;;;;;;1865481;76;26713;-40
2022/12/18 14:23:33;;;;;;;0.80;0.80;;;;;;;;;;1869941;76;26345;-39
2022/12/18 14:26:02;;;;;;;0.90;0.90;;;;;;;;;;1852796;76;26267;-36
2022/12/18 14:28:29;;;;;;;0.90;0.90;;;;;;;;;;1858473;75;26291;-35
2022/12/18 14:30:56;;;;;;;0.80;0.80;;;;;;;;;;1863015;75;26323;-40
2022/12/18 14:33:25;;;;;;;0.70;0.70;;;;;;;;;;1878379;76;26281;-42
2022/12/18 14:35:54;;;;;;;0.90;0.90;;;;;;;;;;1878389;76;26563;-38
2022/12/18 14:38:22;;;;;;;0.70;0.70;;;;;;;;;;1862537;76;26241;-37
2022/12/18 14:41:00;;;;;;;0.90;0.90;;;;;;;;;;1869259;75;26835;-36
2022/12/18 14:43:29;;;;;;;0.90;0.90;;;;;;;;;;1879418;76;26272;-39
2022/12/18 14:45:56;;;;;;;0.80;0.80;;;;;;;;;;1875593;76;25826;-37
2022/12/18 14:48:34;;;;;;;0.80;0.80;;;;;;;;;;1882752;76;26264;-36
2022/12/18 14:51:06;;;;;;;0.70;0.70;;;;;;;;;;1849658;76;26376;-35
2022/12/18 14:53:35;;;;;;;0.80;0.80;;;;;;;;;;1871370;76;26237;-39
2022/12/18 14:56:03;;;;;;;0.70;0.70;;;;;;;;;;1878193;76;26737;-35
2022/12/18 14:58:31;;;;;;;0.70;0.70;;;;;;;;;;1879881;76;26283;-36
2022/12/18 15:00:58;;;;;;;0.78;0.78;;;;;;;;;;1861169;76;26772;-40
2022/12/18 15:03:25;;;;;;;0.80;0.80;;;;;;;;;;1850158;75;26751;-35
2022/12/18 15:05:53;;;;;;;0.60;0.60;;;;;;;;;;1867076;76;26292;-39
2022/12/18 15:08:36;;;;;;;0.80;0.80;;;;;;;;;;1871474;76;26178;-38